sensor_id;sensor_type;location;lat;lon;timestamp;temperature;humidity
17381;DHT22;8808;52.478;13.378;2022-09-01T00:01:10;17.20;99.90
17381;DHT22;8808;52.478;13.378;2022-09-01T00:03:39;17.20;99.90
17381;DHT22;8808;52.478;13.378;2022-09-01T00:06:08;17.30;99.90
17381;DHT22;8808;52.478;13.378;2022-09-01T00:08:36;17.20;99.90
17381;DHT22;8808;52.478;13.378;2022-09-01T00:11:03;17.30;99.90
17381;DHT22;8808;52.478;13.378;2022-09-01T00:13:30;17.50;99.90
17381;DHT22;8808;52.478;13.378;2022-09-01T00:15:59;17.30;99.90
17381;DHT22;8808;52.478;13.378;2022-09-01T00:18:27;17.20;99.90
17381;DHT22;8808;52.478;13.378;2022-09-01T00:20:55;17.10;99.90
17381;DHT22;8808;52.478;13.378;2022-09-01T00:23:25;17.10;99.90
17381;DHT22;8808;52.478;13.378;2022-09-01T00:25:53;17.20;99.90
17381;DHT22;8808;52.478;13.378;2022-09-01T00:28:20;17.10;99.90
17381;DHT22;8808;52.478;13.378;2022-09-01T00:30:47;17.20;99.90
17381;DHT22;8808;52.478;13.378;2022-09-01T00:33:14;17.20;99.90
17381;DHT22;8808;52.478;13.378;2022-09-01T00:35:41;17.20;99.90
17381;DHT22;8808;52.478;13.378;2022-09-01T00:38:08;17.20;99.90
17381;DHT22;8808;52.478;13.378;2022-09-01T00:40:36;17.20;99.90
17381;DHT22;8808;52.478;13.378;2022-09-01T00:43:11;17.10;99.90
17381;DHT22;8808;52.478;13.378;2022-09-01T00:45:38;17.10;99.90
17381;DHT22;8808;52.478;13.378;2022-09-01T00:48:06;17.10;99.90
17381;DHT22;8808;52.478;13.378;2022-09-01T00:50:34;17.00;99.90
17381;DHT22;8808;52.478;13.378;2022-09-01T00:53:03;17.00;99.90
17381;DHT22;8808;52.478;13.378;2022-09-01T00:55:33;17.00;99.90
17381;DHT22;8808;52.478;13.378;2022-09-01T00:58:04;17.00;99.90
17381;DHT22;8808;52.478;13.378;2022-09-01T01:03:17;17.00;99.90
17381;DHT22;8808;52.478;13.378;2022-09-01T01:05:51;17.00;99.90
17381;DHT22;8808;52.478;13.378;2022-09-01T01:08:22;17.00;99.90
17381;DHT22;8808;52.478;13.378;2022-09-01T01:10:56;16.90;99.90
17381;DHT22;8808;52.478;13.378;2022-09-01T01:13:24;16.90;99.90
17381;DHT22;8808;52.478;13.378;2022-09-01T01:15:52;16.90;99.90
17381;DHT22;8808;52.478;13.378;2022-09-01T01:18:19;17.00;99.90
17381;DHT22;8808;52.478;13.378;2022-09-01T01:20:47;16.90;99.90
17381;DHT22;8808;52.478;13.378;2022-09-01T01:23:38;16.90;99.90
17381;DHT22;8808;52.478;13.378;2022-09-01T01:26:08;16.80;99.90
17381;DHT22;8808;52.478;13.378;2022-09-01T01:28:37;16.90;99.90
17381;DHT22;8808;52.478;13.378;2022-09-01T01:31:06;16.80;99.90
17381;DHT22;8808;52.478;13.378;2022-09-01T01:33:39;16.80;99.90
17381;DHT22;8808;52.478;13.378;2022-09-01T01:36:11;16.90;99.90
17381;DHT22;8808;52.478;13.378;2022-09-01T01:38:39;16.90;99.90
17381;DHT22;8808;52.478;13.378;2022-09-01T01:41:09;16.80;99.90
17381;DHT22;8808;52.478;13.378;2022-09-01T01:43:37;16.80;99.90
17381;DHT22;8808;52.478;13.378;2022-09-01T01:46:06;16.70;99.90
17381;DHT22;8808;52.478;13.378;2022-09-01T01:48:35;16.60;99.90
17381;DHT22;8808;52.478;13.378;2022-09-01T01:51:04;16.60;99.90
17381;DHT22;8808;52.478;13.378;2022-09-01T01:53:32;16.70;99.90
17381;DHT22;8808;52.478;13.378;2022-09-01T01:55:59;16.70;99.90
17381;DHT22;8808;52.478;13.378;2022-09-01T01:58:28;16.70;99.90
17381;DHT22;8808;52.478;13.378;2022-09-01T02:00:56;16.60;99.90
17381;DHT22;8808;52.478;13.378;2022-09-01T02:03:25;16.60;99.90
17381;DHT22;8808;52.478;13.378;2022-09-01T02:05:54;16.50;99.90
17381;DHT22;8808;52.478;13.378;2022-09-01T02:08:22;16.60;99.90
17381;DHT22;8808;52.478;13.378;2022-09-01T02:10:51;16.50;99.90
17381;DHT22;8808;52.478;13.378;2022-09-01T02:13:21;16.40;99.90
17381;DHT22;8808;52.478;13.378;2022-09-01T02:15:58;16.40;99.90
17381;DHT22;8808;52.478;13.378;2022-09-01T02:18:28;16.40;99.90
17381;DHT22;8808;52.478;13.378;2022-09-01T02:20:59;16.40;99.90
17381;DHT22;8808;52.478;13.378;2022-09-01T02:23:26;16.50;99.90
17381;DHT22;8808;52.478;13.378;2022-09-01T02:25:56;16.40;99.90
17381;DHT22;8808;52.478;13.378;2022-09-01T02:28:25;16.30;99.90
17381;DHT22;8808;52.478;13.378;2022-09-01T02:30:53;16.40;99.90
17381;DHT22;8808;52.478;13.378;2022-09-01T02:33:24;16.30;99.90
17381;DHT22;8808;52.478;13.378;2022-09-01T02:35:53;16.30;99.90
17381;DHT22;8808;52.478;13.378;2022-09-01T02:38:21;16.30;99.90
17381;DHT22;8808;52.478;13.378;2022-09-01T02:40:52;16.20;99.90
17381;DHT22;8808;52.478;13.378;2022-09-01T02:43:20;16.30;99.90
17381;DHT22;8808;52.478;13.378;2022-09-01T02:45:47;16.20;99.90
17381;DHT22;8808;52.478;13.378;2022-09-01T02:48:20;16.20;99.90
17381;DHT22;8808;52.478;13.378;2022-09-01T02:50:50;16.20;99.90
17381;DHT22;8808;52.478;13.378;2022-09-01T02:53:17;16.20;99.90
17381;DHT22;8808;52.478;13.378;2022-09-01T02:55:45;16.20;99.90
17381;DHT22;8808;52.478;13.378;2022-09-01T02:58:12;16.30;99.90
17381;DHT22;8808;52.478;13.378;2022-09-01T03:00:41;16.20;99.90
17381;DHT22;8808;52.478;13.378;2022-09-01T03:03:08;16.00;99.90
17381;DHT22;8808;52.478;13.378;2022-09-01T03:05:37;16.00;99.90
17381;DHT22;8808;52.478;13.378;2022-09-01T03:08:09;16.00;99.90
17381;DHT22;8808;52.478;13.378;2022-09-01T03:10:38;15.90;99.90
17381;DHT22;8808;52.478;13.378;2022-09-01T03:13:08;15.90;99.90
17381;DHT22;8808;52.478;13.378;2022-09-01T03:15:37;15.80;99.90
17381;DHT22;8808;52.478;13.378;2022-09-01T03:18:05;16.00;99.90
17381;DHT22;8808;52.478;13.378;2022-09-01T03:20:34;15.90;99.90
17381;DHT22;8808;52.478;13.378;2022-09-01T03:23:02;15.60;99.90
17381;DHT22;8808;52.478;13.378;2022-09-01T03:25:32;15.50;99.90
17381;DHT22;8808;52.478;13.378;2022-09-01T03:28:00;15.60;99.90
17381;DHT22;8808;52.478;13.378;2022-09-01T03:30:28;15.50;99.90
17381;DHT22;8808;52.478;13.378;2022-09-01T03:32:55;15.30;99.90
17381;DHT22;8808;52.478;13.378;2022-09-01T03:35:22;15.40;99.90
17381;DHT22;8808;52.478;13.378;2022-09-01T03:37:50;15.30;99.90
17381;DHT22;8808;52.478;13.378;2022-09-01T03:40:17;15.20;99.90
17381;DHT22;8808;52.478;13.378;2022-09-01T03:42:46;15.30;99.90
17381;DHT22;8808;52.478;13.378;2022-09-01T03:45:13;15.30;99.90
17381;DHT22;8808;52.478;13.378;2022-09-01T03:47:41;15.20;99.90
17381;DHT22;8808;52.478;13.378;2022-09-01T03:50:10;15.20;99.90
17381;DHT22;8808;52.478;13.378;2022-09-01T03:52:42;15.10;99.90
17381;DHT22;8808;52.478;13.378;2022-09-01T03:55:09;15.10;99.90
17381;DHT22;8808;52.478;13.378;2022-09-01T03:57:37;15.10;99.90
17381;DHT22;8808;52.478;13.378;2022-09-01T04:00:09;15.10;99.90
17381;DHT22;8808;52.478;13.378;2022-09-01T04:02:45;15.10;99.90
17381;DHT22;8808;52.478;13.378;2022-09-01T04:05:13;15.10;99.90
17381;DHT22;8808;52.478;13.378;2022-09-01T04:07:40;15.00;99.90
17381;DHT22;8808;52.478;13.378;2022-09-01T04:10:10;15.10;99.90
17381;DHT22;8808;52.478;13.378;2022-09-01T04:12:37;15.10;99.90
17381;DHT22;8808;52.478;13.378;2022-09-01T04:15:04;15.10;99.90
17381;DHT22;8808;52.478;13.378;2022-09-01T04:17:33;15.00;99.90
17381;DHT22;8808;52.478;13.378;2022-09-01T04:20:18;15.00;99.90
17381;DHT22;8808;52.478;13.378;2022-09-01T04:22:46;14.90;99.90
17381;DHT22;8808;52.478;13.378;2022-09-01T04:25:15;15.00;99.90
17381;DHT22;8808;52.478;13.378;2022-09-01T04:27:42;15.00;99.90
17381;DHT22;8808;52.478;13.378;2022-09-01T04:30:12;15.00;99.90
17381;DHT22;8808;52.478;13.378;2022-09-01T04:32:40;14.90;99.90
17381;DHT22;8808;52.478;13.378;2022-09-01T04:35:08;14.90;99.90
17381;DHT22;8808;52.478;13.378;2022-09-01T04:37:42;14.70;99.90
17381;DHT22;8808;52.478;13.378;2022-09-01T04:40:09;14.80;99.90
17381;DHT22;8808;52.478;13.378;2022-09-01T04:42:39;14.80;99.90
17381;DHT22;8808;52.478;13.378;2022-09-01T04:45:08;14.80;99.90
17381;DHT22;8808;52.478;13.378;2022-09-01T04:47:37;14.80;99.90
17381;DHT22;8808;52.478;13.378;2022-09-01T04:50:09;14.90;99.90
17381;DHT22;8808;52.478;13.378;2022-09-01T04:52:39;15.00;99.90
17381;DHT22;8808;52.478;13.378;2022-09-01T04:55:07;14.80;99.90
17381;DHT22;8808;52.478;13.378;2022-09-01T04:57:42;14.80;99.90
17381;DHT22;8808;52.478;13.378;2022-09-01T05:02:47;15.00;99.90
17381;DHT22;8808;52.478;13.378;2022-09-01T05:05:19;15.10;99.90
17381;DHT22;8808;52.478;13.378;2022-09-01T05:07:46;15.00;99.90
17381;DHT22;8808;52.478;13.378;2022-09-01T05:10:17;14.90;99.90
17381;DHT22;8808;52.478;13.378;2022-09-01T05:12:44;15.10;99.90
17381;DHT22;8808;52.478;13.378;2022-09-01T05:15:13;15.20;99.90
17381;DHT22;8808;52.478;13.378;2022-09-01T05:17:41;15.20;99.90
17381;DHT22;8808;52.478;13.378;2022-09-01T05:20:09;15.20;99.90
17381;DHT22;8808;52.478;13.378;2022-09-01T05:22:38;15.10;99.90
17381;DHT22;8808;52.478;13.378;2022-09-01T05:25:06;15.20;99.90
17381;DHT22;8808;52.478;13.378;2022-09-01T05:27:38;15.20;99.90
17381;DHT22;8808;52.478;13.378;2022-09-01T05:30:06;15.30;99.90
17381;DHT22;8808;52.478;13.378;2022-09-01T05:32:34;15.40;99.90
17381;DHT22;8808;52.478;13.378;2022-09-01T05:35:02;15.40;99.90
17381;DHT22;8808;52.478;13.378;2022-09-01T05:37:33;15.50;99.90
17381;DHT22;8808;52.478;13.378;2022-09-01T05:40:03;15.60;99.90
17381;DHT22;8808;52.478;13.378;2022-09-01T05:42:30;15.80;99.90
17381;DHT22;8808;52.478;13.378;2022-09-01T05:44:57;15.70;99.90
17381;DHT22;8808;52.478;13.378;2022-09-01T05:47:24;15.80;99.90
17381;DHT22;8808;52.478;13.378;2022-09-01T05:49:53;16.10;99.90
17381;DHT22;8808;52.478;13.378;2022-09-01T05:52:23;16.10;99.90
17381;DHT22;8808;52.478;13.378;2022-09-01T05:54:51;16.40;99.90
17381;DHT22;8808;52.478;13.378;2022-09-01T05:57:19;16.30;99.90
17381;DHT22;8808;52.478;13.378;2022-09-01T05:59:46;16.40;99.90
17381;DHT22;8808;52.478;13.378;2022-09-01T06:02:19;16.60;99.90
17381;DHT22;8808;52.478;13.378;2022-09-01T06:04:46;16.70;99.90
17381;DHT22;8808;52.478;13.378;2022-09-01T06:07:14;16.90;99.90
17381;DHT22;8808;52.478;13.378;2022-09-01T06:09:44;16.70;99.90
17381;DHT22;8808;52.478;13.378;2022-09-01T06:12:13;17.00;99.90
17381;DHT22;8808;52.478;13.378;2022-09-01T06:14:44;17.00;99.90
17381;DHT22;8808;52.478;13.378;2022-09-01T06:17:11;17.20;99.90
17381;DHT22;8808;52.478;13.378;2022-09-01T06:19:40;17.30;99.90
17381;DHT22;8808;52.478;13.378;2022-09-01T06:22:08;17.60;99.90
17381;DHT22;8808;52.478;13.378;2022-09-01T06:24:35;17.60;99.90
17381;DHT22;8808;52.478;13.378;2022-09-01T06:27:04;17.50;99.90
17381;DHT22;8808;52.478;13.378;2022-09-01T06:29:34;17.70;99.90
17381;DHT22;8808;52.478;13.378;2022-09-01T06:32:04;17.60;99.90
17381;DHT22;8808;52.478;13.378;2022-09-01T06:34:34;17.70;99.90
17381;DHT22;8808;52.478;13.378;2022-09-01T06:37:01;17.80;99.90
17381;DHT22;8808;52.478;13.378;2022-09-01T06:39:28;18.00;99.90
17381;DHT22;8808;52.478;13.378;2022-09-01T06:41:56;19.40;99.90
17381;DHT22;8808;52.478;13.378;2022-09-01T06:44:23;19.30;99.90
17381;DHT22;8808;52.478;13.378;2022-09-01T06:46:51;19.60;99.90
17381;DHT22;8808;52.478;13.378;2022-09-01T06:49:20;19.40;99.90
17381;DHT22;8808;52.478;13.378;2022-09-01T06:51:57;19.10;99.90
17381;DHT22;8808;52.478;13.378;2022-09-01T06:54:24;19.00;99.90
17381;DHT22;8808;52.478;13.378;2022-09-01T06:56:51;19.30;99.90
17381;DHT22;8808;52.478;13.378;2022-09-01T06:59:18;19.40;99.90
17381;DHT22;8808;52.478;13.378;2022-09-01T07:01:46;19.40;99.90
17381;DHT22;8808;52.478;13.378;2022-09-01T07:04:16;19.50;99.90
17381;DHT22;8808;52.478;13.378;2022-09-01T07:06:48;19.50;99.90
17381;DHT22;8808;52.478;13.378;2022-09-01T07:09:17;19.20;99.90
17381;DHT22;8808;52.478;13.378;2022-09-01T07:11:44;19.00;99.90
17381;DHT22;8808;52.478;13.378;2022-09-01T07:14:11;19.10;99.90
17381;DHT22;8808;52.478;13.378;2022-09-01T07:16:42;19.10;99.90
17381;DHT22;8808;52.478;13.378;2022-09-01T07:19:10;19.60;99.90
17381;DHT22;8808;52.478;13.378;2022-09-01T07:21:38;19.40;99.90
17381;DHT22;8808;52.478;13.378;2022-09-01T07:24:06;19.50;99.90
17381;DHT22;8808;52.478;13.378;2022-09-01T07:26:34;19.30;99.90
17381;DHT22;8808;52.478;13.378;2022-09-01T07:29:02;19.40;99.90
17381;DHT22;8808;52.478;13.378;2022-09-01T07:31:31;19.70;99.90
17381;DHT22;8808;52.478;13.378;2022-09-01T07:34:01;19.70;99.90
17381;DHT22;8808;52.478;13.378;2022-09-01T07:36:29;19.60;99.90
17381;DHT22;8808;52.478;13.378;2022-09-01T07:38:56;19.50;99.90
17381;DHT22;8808;52.478;13.378;2022-09-01T07:41:26;19.40;99.90
17381;DHT22;8808;52.478;13.378;2022-09-01T07:43:54;19.30;99.90
17381;DHT22;8808;52.478;13.378;2022-09-01T07:46:22;20.00;99.90
17381;DHT22;8808;52.478;13.378;2022-09-01T07:48:52;19.80;99.90
17381;DHT22;8808;52.478;13.378;2022-09-01T07:51:20;20.10;99.90
17381;DHT22;8808;52.478;13.378;2022-09-01T07:53:48;20.10;99.90
17381;DHT22;8808;52.478;13.378;2022-09-01T07:56:17;20.40;99.90
17381;DHT22;8808;52.478;13.378;2022-09-01T07:58:47;20.80;99.90
17381;DHT22;8808;52.478;13.378;2022-09-01T08:01:17;20.80;99.90
17381;DHT22;8808;52.478;13.378;2022-09-01T08:03:44;20.80;99.90
17381;DHT22;8808;52.478;13.378;2022-09-01T08:06:13;20.70;99.90
17381;DHT22;8808;52.478;13.378;2022-09-01T08:08:44;21.20;99.90
17381;DHT22;8808;52.478;13.378;2022-09-01T08:11:15;21.70;99.90
17381;DHT22;8808;52.478;13.378;2022-09-01T08:13:42;21.50;99.90
17381;DHT22;8808;52.478;13.378;2022-09-01T08:16:10;21.10;99.90
17381;DHT22;8808;52.478;13.378;2022-09-01T08:18:39;21.00;99.90
17381;DHT22;8808;52.478;13.378;2022-09-01T08:21:06;21.90;99.90
17381;DHT22;8808;52.478;13.378;2022-09-01T08:23:33;21.40;99.90
17381;DHT22;8808;52.478;13.378;2022-09-01T08:26:04;21.40;99.90
17381;DHT22;8808;52.478;13.378;2022-09-01T08:28:31;21.00;99.90
17381;DHT22;8808;52.478;13.378;2022-09-01T08:30:59;21.40;99.90
17381;DHT22;8808;52.478;13.378;2022-09-01T08:33:30;21.90;99.90
17381;DHT22;8808;52.478;13.378;2022-09-01T08:36:00;21.40;99.90
17381;DHT22;8808;52.478;13.378;2022-09-01T08:38:27;21.30;99.90
17381;DHT22;8808;52.478;13.378;2022-09-01T08:40:56;21.30;99.90
17381;DHT22;8808;52.478;13.378;2022-09-01T08:43:33;21.40;99.90
17381;DHT22;8808;52.478;13.378;2022-09-01T08:46:08;21.70;99.90
17381;DHT22;8808;52.478;13.378;2022-09-01T08:48:41;21.80;99.90
17381;DHT22;8808;52.478;13.378;2022-09-01T08:51:15;21.70;99.90
17381;DHT22;8808;52.478;13.378;2022-09-01T08:53:48;21.90;99.90
17381;DHT22;8808;52.478;13.378;2022-09-01T08:56:18;21.60;99.90
17381;DHT22;8808;52.478;13.378;2022-09-01T08:58:45;21.50;99.90
17381;DHT22;8808;52.478;13.378;2022-09-01T09:01:24;21.10;99.90
17381;DHT22;8808;52.478;13.378;2022-09-01T09:04:09;21.30;99.90
17381;DHT22;8808;52.478;13.378;2022-09-01T09:06:46;21.90;99.90
17381;DHT22;8808;52.478;13.378;2022-09-01T09:09:17;21.80;99.90
17381;DHT22;8808;52.478;13.378;2022-09-01T09:12:04;21.60;99.90
17381;DHT22;8808;52.478;13.378;2022-09-01T09:14:48;21.70;99.90
17381;DHT22;8808;52.478;13.378;2022-09-01T09:17:22;21.30;99.80
17381;DHT22;8808;52.478;13.378;2022-09-01T09:19:52;21.60;99.90
17381;DHT22;8808;52.478;13.378;2022-09-01T09:22:22;21.60;99.90
17381;DHT22;8808;52.478;13.378;2022-09-01T09:24:51;21.70;99.90
17381;DHT22;8808;52.478;13.378;2022-09-01T09:27:21;21.80;99.90
17381;DHT22;8808;52.478;13.378;2022-09-01T09:29:50;22.00;99.90
17381;DHT22;8808;52.478;13.378;2022-09-01T09:32:18;22.10;99.20
17381;DHT22;8808;52.478;13.378;2022-09-01T09:34:46;22.00;99.90
17381;DHT22;8808;52.478;13.378;2022-09-01T09:37:23;22.10;99.90
17381;DHT22;8808;52.478;13.378;2022-09-01T09:40:09;22.10;99.90
17381;DHT22;8808;52.478;13.378;2022-09-01T09:42:41;22.10;99.90
17381;DHT22;8808;52.478;13.378;2022-09-01T09:45:21;21.80;99.90
17381;DHT22;8808;52.478;13.378;2022-09-01T09:47:48;22.00;99.90
17381;DHT22;8808;52.478;13.378;2022-09-01T09:50:21;22.00;99.90
17381;DHT22;8808;52.478;13.378;2022-09-01T09:52:52;21.80;99.80
17381;DHT22;8808;52.478;13.378;2022-09-01T09:55:24;21.20;99.30
17381;DHT22;8808;52.478;13.378;2022-09-01T09:57:54;21.20;99.70
17381;DHT22;8808;52.478;13.378;2022-09-01T10:00:24;21.00;99.90
17381;DHT22;8808;52.478;13.378;2022-09-01T10:02:54;20.90;99.90
17381;DHT22;8808;52.478;13.378;2022-09-01T10:05:30;21.00;99.90
17381;DHT22;8808;52.478;13.378;2022-09-01T10:07:59;21.90;99.90
17381;DHT22;8808;52.478;13.378;2022-09-01T10:10:29;22.20;99.90
17381;DHT22;8808;52.478;13.378;2022-09-01T10:12:58;22.50;99.90
17381;DHT22;8808;52.478;13.378;2022-09-01T10:15:29;22.50;99.90
17381;DHT22;8808;52.478;13.378;2022-09-01T10:18:01;22.30;98.30
17381;DHT22;8808;52.478;13.378;2022-09-01T10:20:30;22.10;98.00
17381;DHT22;8808;52.478;13.378;2022-09-01T10:23:01;22.50;99.90
17381;DHT22;8808;52.478;13.378;2022-09-01T10:25:31;22.70;97.50
17381;DHT22;8808;52.478;13.378;2022-09-01T10:28:04;22.60;95.70
17381;DHT22;8808;52.478;13.378;2022-09-01T10:30:33;22.60;94.70
17381;DHT22;8808;52.478;13.378;2022-09-01T10:33:02;22.10;94.40
17381;DHT22;8808;52.478;13.378;2022-09-01T10:35:31;22.30;95.60
17381;DHT22;8808;52.478;13.378;2022-09-01T10:38:02;21.70;93.50
17381;DHT22;8808;52.478;13.378;2022-09-01T10:40:37;21.30;93.40
17381;DHT22;8808;52.478;13.378;2022-09-01T10:43:25;21.50;94.50
17381;DHT22;8808;52.478;13.378;2022-09-01T10:45:53;21.70;92.90
17381;DHT22;8808;52.478;13.378;2022-09-01T10:48:29;21.50;93.10
17381;DHT22;8808;52.478;13.378;2022-09-01T10:53:58;22.40;92.70
17381;DHT22;8808;52.478;13.378;2022-09-01T10:56:36;22.50;92.00
17381;DHT22;8808;52.478;13.378;2022-09-01T10:59:06;21.90;92.50
17381;DHT22;8808;52.478;13.378;2022-09-01T11:02:03;21.60;92.90
17381;DHT22;8808;52.478;13.378;2022-09-01T11:07:32;21.80;94.00
17381;DHT22;8808;52.478;13.378;2022-09-01T11:10:29;21.70;93.00
17381;DHT22;8808;52.478;13.378;2022-09-01T11:13:17;22.00;92.60
17381;DHT22;8808;52.478;13.378;2022-09-01T11:15:48;22.40;91.80
17381;DHT22;8808;52.478;13.378;2022-09-01T11:18:17;22.60;91.10
17381;DHT22;8808;52.478;13.378;2022-09-01T11:20:50;22.90;91.30
17381;DHT22;8808;52.478;13.378;2022-09-01T11:23:23;22.70;90.20
17381;DHT22;8808;52.478;13.378;2022-09-01T11:25:52;23.10;90.20
17381;DHT22;8808;52.478;13.378;2022-09-01T11:28:36;23.20;86.70
17381;DHT22;8808;52.478;13.378;2022-09-01T11:31:18;22.40;87.40
17381;DHT22;8808;52.478;13.378;2022-09-01T11:34:11;21.90;87.60
17381;DHT22;8808;52.478;13.378;2022-09-01T11:36:48;21.70;87.40
17381;DHT22;8808;52.478;13.378;2022-09-01T11:39:29;21.50;90.30
17381;DHT22;8808;52.478;13.378;2022-09-01T11:42:00;21.50;90.00
17381;DHT22;8808;52.478;13.378;2022-09-01T11:44:32;21.60;90.80
17381;DHT22;8808;52.478;13.378;2022-09-01T11:47:02;21.30;90.30
17381;DHT22;8808;52.478;13.378;2022-09-01T11:49:32;21.00;90.30
17381;DHT22;8808;52.478;13.378;2022-09-01T11:52:00;21.10;91.20
17381;DHT22;8808;52.478;13.378;2022-09-01T11:54:28;21.20;90.90
17381;DHT22;8808;52.478;13.378;2022-09-01T11:56:55;21.40;90.80
17381;DHT22;8808;52.478;13.378;2022-09-01T11:59:39;21.40;91.40
17381;DHT22;8808;52.478;13.378;2022-09-01T12:02:06;21.30;90.10
17381;DHT22;8808;52.478;13.378;2022-09-01T12:04:34;21.10;89.50
17381;DHT22;8808;52.478;13.378;2022-09-01T12:07:05;21.00;90.20
17381;DHT22;8808;52.478;13.378;2022-09-01T12:09:34;21.00;89.20
17381;DHT22;8808;52.478;13.378;2022-09-01T12:12:03;20.90;90.60
17381;DHT22;8808;52.478;13.378;2022-09-01T12:14:30;21.20;92.80
17381;DHT22;8808;52.478;13.378;2022-09-01T12:17:01;21.30;89.70
17381;DHT22;8808;52.478;13.378;2022-09-01T12:19:30;21.00;90.10
17381;DHT22;8808;52.478;13.378;2022-09-01T12:22:03;20.90;90.10
17381;DHT22;8808;52.478;13.378;2022-09-01T12:24:33;21.10;90.10
17381;DHT22;8808;52.478;13.378;2022-09-01T12:27:02;21.20;90.00
17381;DHT22;8808;52.478;13.378;2022-09-01T12:29:29;21.30;90.00
17381;DHT22;8808;52.478;13.378;2022-09-01T12:31:59;21.30;89.40
17381;DHT22;8808;52.478;13.378;2022-09-01T12:34:36;21.20;90.10
17381;DHT22;8808;52.478;13.378;2022-09-01T12:37:09;21.70;92.70
17381;DHT22;8808;52.478;13.378;2022-09-01T12:39:38;22.00;95.40
17381;DHT22;8808;52.478;13.378;2022-09-01T12:42:10;22.50;95.50
17381;DHT22;8808;52.478;13.378;2022-09-01T12:44:46;21.90;91.10
17381;DHT22;8808;52.478;13.378;2022-09-01T12:47:44;21.70;91.50
17381;DHT22;8808;52.478;13.378;2022-09-01T12:50:36;21.50;93.60
17381;DHT22;8808;52.478;13.378;2022-09-01T12:53:18;21.10;92.80
17381;DHT22;8808;52.478;13.378;2022-09-01T12:55:58;21.10;93.20
17381;DHT22;8808;52.478;13.378;2022-09-01T12:58:27;21.70;95.10
17381;DHT22;8808;52.478;13.378;2022-09-01T13:00:58;21.80;93.50
17381;DHT22;8808;52.478;13.378;2022-09-01T13:03:27;22.00;93.70
17381;DHT22;8808;52.478;13.378;2022-09-01T13:05:55;22.60;96.60
17381;DHT22;8808;52.478;13.378;2022-09-01T13:08:25;22.60;92.50
17381;DHT22;8808;52.478;13.378;2022-09-01T13:10:54;22.70;97.00
17381;DHT22;8808;52.478;13.378;2022-09-01T13:13:23;22.30;92.60
17381;DHT22;8808;52.478;13.378;2022-09-01T13:15:51;22.30;92.90
17381;DHT22;8808;52.478;13.378;2022-09-01T13:18:20;21.70;93.00
17381;DHT22;8808;52.478;13.378;2022-09-01T13:20:49;21.70;93.50
17381;DHT22;8808;52.478;13.378;2022-09-01T13:23:17;22.70;95.70
17381;DHT22;8808;52.478;13.378;2022-09-01T13:25:45;22.60;91.00
17381;DHT22;8808;52.478;13.378;2022-09-01T13:28:13;21.90;90.30
17381;DHT22;8808;52.478;13.378;2022-09-01T13:30:42;21.50;91.10
17381;DHT22;8808;52.478;13.378;2022-09-01T13:33:09;21.40;91.50
17381;DHT22;8808;52.478;13.378;2022-09-01T13:35:38;22.10;96.60
17381;DHT22;8808;52.478;13.378;2022-09-01T13:38:06;22.90;96.80
17381;DHT22;8808;52.478;13.378;2022-09-01T13:40:33;22.90;93.60
17381;DHT22;8808;52.478;13.378;2022-09-01T13:43:00;22.80;92.80
17381;DHT22;8808;52.478;13.378;2022-09-01T13:45:29;22.80;96.90
17381;DHT22;8808;52.478;13.378;2022-09-01T13:47:56;22.50;90.60
17381;DHT22;8808;52.478;13.378;2022-09-01T13:50:23;21.80;91.30
17381;DHT22;8808;52.478;13.378;2022-09-01T13:52:52;21.60;90.90
17381;DHT22;8808;52.478;13.378;2022-09-01T13:55:23;21.40;91.50
17381;DHT22;8808;52.478;13.378;2022-09-01T13:57:51;21.30;90.80
17381;DHT22;8808;52.478;13.378;2022-09-01T14:00:19;21.60;93.80
17381;DHT22;8808;52.478;13.378;2022-09-01T14:02:51;22.30;91.80
17381;DHT22;8808;52.478;13.378;2022-09-01T14:05:20;21.80;91.40
17381;DHT22;8808;52.478;13.378;2022-09-01T14:07:48;21.60;91.90
17381;DHT22;8808;52.478;13.378;2022-09-01T14:10:15;21.50;91.60
17381;DHT22;8808;52.478;13.378;2022-09-01T14:12:43;21.50;90.80
17381;DHT22;8808;52.478;13.378;2022-09-01T14:15:14;22.60;94.90
17381;DHT22;8808;52.478;13.378;2022-09-01T14:17:41;22.30;92.70
17381;DHT22;8808;52.478;13.378;2022-09-01T14:20:11;22.10;92.90
17381;DHT22;8808;52.478;13.378;2022-09-01T14:22:39;22.20;92.10
17381;DHT22;8808;52.478;13.378;2022-09-01T14:25:07;22.50;94.40
17381;DHT22;8808;52.478;13.378;2022-09-01T14:27:35;23.00;93.10
17381;DHT22;8808;52.478;13.378;2022-09-01T14:30:05;22.40;92.80
17381;DHT22;8808;52.478;13.378;2022-09-01T14:32:33;22.50;96.40
17381;DHT22;8808;52.478;13.378;2022-09-01T14:35:01;22.30;91.90
17381;DHT22;8808;52.478;13.378;2022-09-01T14:37:28;22.50;94.10
17381;DHT22;8808;52.478;13.378;2022-09-01T14:39:56;22.80;96.10
17381;DHT22;8808;52.478;13.378;2022-09-01T14:42:23;22.80;94.50
17381;DHT22;8808;52.478;13.378;2022-09-01T14:44:53;22.20;93.60
17381;DHT22;8808;52.478;13.378;2022-09-01T14:47:21;21.70;92.20
17381;DHT22;8808;52.478;13.378;2022-09-01T14:49:50;21.60;92.60
17381;DHT22;8808;52.478;13.378;2022-09-01T14:52:18;22.00;96.10
17381;DHT22;8808;52.478;13.378;2022-09-01T14:54:46;22.30;92.70
17381;DHT22;8808;52.478;13.378;2022-09-01T14:57:14;22.30;96.40
17381;DHT22;8808;52.478;13.378;2022-09-01T14:59:41;22.30;95.30
17381;DHT22;8808;52.478;13.378;2022-09-01T15:02:09;22.20;93.90
17381;DHT22;8808;52.478;13.378;2022-09-01T15:04:37;21.90;93.90
17381;DHT22;8808;52.478;13.378;2022-09-01T15:07:04;21.90;95.60
17381;DHT22;8808;52.478;13.378;2022-09-01T15:09:31;21.60;94.40
17381;DHT22;8808;52.478;13.378;2022-09-01T15:11:58;21.60;96.10
17381;DHT22;8808;52.478;13.378;2022-09-01T15:14:26;21.90;97.20
17381;DHT22;8808;52.478;13.378;2022-09-01T15:16:53;21.90;91.70
17381;DHT22;8808;52.478;13.378;2022-09-01T15:19:20;21.60;93.00
17381;DHT22;8808;52.478;13.378;2022-09-01T15:21:48;21.50;94.10
17381;DHT22;8808;52.478;13.378;2022-09-01T15:24:15;21.80;96.70
17381;DHT22;8808;52.478;13.378;2022-09-01T15:26:43;21.90;92.60
17381;DHT22;8808;52.478;13.378;2022-09-01T15:29:11;21.60;92.40
17381;DHT22;8808;52.478;13.378;2022-09-01T15:31:40;21.40;91.40
17381;DHT22;8808;52.478;13.378;2022-09-01T15:34:07;21.50;93.20
17381;DHT22;8808;52.478;13.378;2022-09-01T15:36:36;21.40;91.80
17381;DHT22;8808;52.478;13.378;2022-09-01T15:39:07;21.30;94.40
17381;DHT22;8808;52.478;13.378;2022-09-01T15:41:35;21.10;93.20
17381;DHT22;8808;52.478;13.378;2022-09-01T15:44:03;21.10;93.00
17381;DHT22;8808;52.478;13.378;2022-09-01T15:46:32;21.10;91.50
17381;DHT22;8808;52.478;13.378;2022-09-01T15:49:00;21.10;93.50
17381;DHT22;8808;52.478;13.378;2022-09-01T15:51:30;21.00;91.20
17381;DHT22;8808;52.478;13.378;2022-09-01T15:54:00;21.30;94.20
17381;DHT22;8808;52.478;13.378;2022-09-01T15:56:29;21.40;95.20
17381;DHT22;8808;52.478;13.378;2022-09-01T15:58:57;21.50;93.80